createdAt,value
2017-06-17T00:00:42.860Z,0
2017-06-17T00:10:52.908Z,0
2017-06-17T00:21:03.058Z,0
2017-06-17T00:31:13.186Z,0
2017-06-17T00:41:23.318Z,0
2017-06-17T00:51:33.398Z,0
2017-06-17T01:01:43.454Z,0
2017-06-17T01:11:53.488Z,0
2017-06-17T01:22:03.471Z,0
2017-06-17T01:32:13.487Z,0
2017-06-17T01:42:23.462Z,0
2017-06-17T01:52:33.387Z,0
2017-06-17T02:02:43.302Z,0
2017-06-17T02:12:53.174Z,0
2017-06-17T02:23:03.057Z,0
2017-06-17T02:33:12.903Z,0
2017-06-17T02:43:22.701Z,0
2017-06-17T02:53:32.534Z,0
2017-06-17T03:03:42.437Z,5
2017-06-17T03:13:52.436Z,10
2017-06-17T03:24:02.270Z,15
2017-06-17T03:34:12.141Z,25
2017-06-17T03:44:21.933Z,35
2017-06-17T03:54:31.667Z,45
2017-06-17T04:04:41.403Z,60
2017-06-17T04:14:51.115Z,85
2017-06-17T04:25:00.847Z,80
2017-06-17T04:35:10.552Z,75
2017-06-17T04:45:20.262Z,75
2017-06-17T04:55:29.954Z,85
2017-06-17T05:05:39.853Z,90
2017-06-17T05:15:49.344Z,120
2017-06-17T05:25:58.993Z,150
2017-06-17T05:36:08.637Z,145
2017-06-17T05:46:18.225Z,165
2017-06-17T05:56:27.822Z,190
2017-06-17T06:06:37.305Z,270
2017-06-17T06:16:46.753Z,380
2017-06-17T06:26:56.244Z,415
2017-06-17T06:37:05.653Z,420
2017-06-17T06:47:14.807Z,355
2017-06-17T06:57:24.060Z,360
2017-06-17T07:07:33.254Z,450
2017-06-17T07:17:42.500Z,320
2017-06-17T07:27:51.547Z,375
2017-06-17T07:38:00.695Z,375
2017-06-17T07:48:09.841Z,480
2017-06-17T07:58:18.860Z,590
2017-06-17T08:08:27.812Z,610
2017-06-17T08:18:36.748Z,475
2017-06-17T08:28:45.611Z,515
2017-06-17T08:38:54.570Z,850
2017-06-17T08:49:03.280Z,1015
2017-06-17T08:59:11.836Z,910
2017-06-17T09:09:20.267Z,830
2017-06-17T09:19:28.754Z,625
2017-06-17T09:29:37.300Z,665
2017-06-17T09:39:45.924Z,770
2017-06-17T09:49:54.464Z,715
2017-06-17T10:00:03.044Z,475
2017-06-17T10:10:11.773Z,490
2017-06-17T10:20:20.512Z,700
2017-06-17T10:30:29.203Z,750
2017-06-17T10:40:37.781Z,1250
2017-06-17T10:50:46.121Z,980
2017-06-17T11:00:54.393Z,910
2017-06-17T11:11:02.634Z,820
2017-06-17T11:21:10.965Z,685
2017-06-17T11:31:19.212Z,665
2017-06-17T11:41:27.603Z,685
2017-06-17T11:51:35.974Z,755
2017-06-17T12:01:44.353Z,590
2017-06-17T12:11:52.776Z,820
2017-06-17T12:22:01.097Z,1685
2017-06-17T12:32:09.054Z,2915
2017-06-17T12:42:16.760Z,3930
2017-06-17T12:52:24.233Z,2470
2017-06-17T13:02:31.560Z,1835
2017-06-17T13:12:38.954Z,1355
2017-06-17T13:22:46.567Z,1300
2017-06-17T13:32:54.281Z,3210
2017-06-17T13:43:01.939Z,1360
2017-06-17T13:53:09.455Z,1010
2017-06-17T14:03:17.163Z,375
2017-06-17T14:13:25.160Z,800
2017-06-17T14:23:33.260Z,585
2017-06-17T14:33:41.467Z,405
2017-06-17T14:43:49.809Z,430
2017-06-17T14:53:58.141Z,725
2017-06-17T15:04:06.418Z,335
2017-06-17T15:14:14.661Z,480
2017-06-17T15:24:23.086Z,560
2017-06-17T15:34:31.460Z,525
2017-06-17T15:44:39.657Z,715
2017-06-17T15:54:47.786Z,410
2017-06-17T16:04:56.061Z,395
2017-06-17T16:15:04.414Z,550
2017-06-17T16:25:12.762Z,415
2017-06-17T16:35:21.085Z,375
2017-06-17T16:45:29.431Z,270
2017-06-17T16:55:37.771Z,225
2017-06-17T17:05:46.227Z,240
2017-06-17T17:15:54.734Z,190
2017-06-17T17:26:03.230Z,275
2017-06-17T17:36:11.705Z,270
2017-06-17T17:46:20.258Z,195
2017-06-17T17:56:28.812Z,140
2017-06-17T18:06:37.431Z,90
2017-06-17T18:16:46.088Z,75
2017-06-17T18:26:54.777Z,95
2017-06-17T18:37:03.479Z,135
2017-06-17T18:47:12.212Z,95
2017-06-17T18:57:20.935Z,70
2017-06-17T19:07:29.721Z,55
2017-06-17T19:17:38.522Z,35
2017-06-17T19:27:47.325Z,20
2017-06-17T19:37:56.136Z,10
2017-06-17T19:48:04.957Z,5
2017-06-17T19:58:13.784Z,0
2017-06-17T20:08:22.590Z,0
2017-06-17T20:18:31.448Z,0
2017-06-17T20:28:40.345Z,0
2017-06-17T20:38:49.264Z,0
2017-06-17T20:48:58.245Z,0
2017-06-17T20:59:07.195Z,0
2017-06-17T21:09:16.186Z,0
2017-06-17T21:19:25.201Z,0
2017-06-17T21:29:34.245Z,0
2017-06-17T21:39:43.328Z,0
2017-06-17T21:49:52.908Z,0
2017-06-17T22:00:01.627Z,0
2017-06-17T22:10:10.797Z,0
2017-06-17T22:20:20.041Z,0
2017-06-17T22:30:29.268Z,0
2017-06-17T22:40:38.505Z,0
2017-06-17T22:50:47.822Z,0
2017-06-17T23:00:57.164Z,0
2017-06-17T23:11:06.500Z,0
2017-06-17T23:21:15.813Z,0
2017-06-17T23:31:25.172Z,0
2017-06-17T23:41:34.511Z,0
2017-06-17T23:51:43.949Z,0
